createdAt,value
2023-04-05T00:00:44.401Z,5.75
2023-04-05T00:03:11.867Z,5.35
2023-04-05T00:05:39.571Z,4.63
2023-04-05T00:08:13.624Z,4.95
2023-04-05T00:10:41.268Z,4.88
2023-04-05T00:13:08.968Z,5.78
2023-04-05T00:15:36.220Z,5.18
2023-04-05T00:18:04.016Z,4.90
2023-04-05T00:20:31.256Z,5.28
2023-04-05T00:22:58.458Z,5.45
2023-04-05T00:25:26.286Z,5.60
2023-04-05T00:27:53.421Z,5.03
2023-04-05T00:30:21.448Z,5.50
2023-04-05T00:32:50.218Z,5.68
2023-04-05T00:35:18.039Z,5.30
2023-04-05T00:37:45.438Z,6.05
2023-04-05T00:40:13.150Z,5.43
2023-04-05T00:42:40.360Z,5.28
2023-04-05T00:45:08.127Z,5.55
2023-04-05T00:47:35.538Z,6.25
2023-04-05T00:50:03.930Z,6.85
2023-04-05T00:52:31.263Z,6.10
2023-04-05T00:54:59.164Z,6.32
2023-04-05T00:57:26.565Z,6.15
2023-04-05T00:59:54.147Z,6.50
2023-04-05T01:02:32.452Z,6.15
2023-04-05T01:05:05.462Z,5.25
2023-04-05T01:07:43.029Z,6.67
2023-04-05T01:10:13.593Z,6.70
2023-04-05T01:12:41.611Z,6.43
2023-04-05T01:15:09.502Z,6.90
2023-04-05T01:17:37.072Z,7.00
2023-04-05T01:20:09.832Z,6.05
2023-04-05T01:23:03.816Z,5.60
2023-04-05T01:26:00.004Z,5.90
2023-04-05T01:28:41.619Z,5.50
2023-04-05T01:31:17.577Z,5.38
2023-04-05T01:33:53.176Z,5.63
2023-04-05T01:36:41.309Z,5.10
2023-04-05T01:39:11.799Z,5.40
2023-04-05T01:41:40.769Z,4.90
2023-04-05T01:44:08.030Z,5.65
2023-04-05T01:46:35.418Z,4.93
2023-04-05T01:49:03.929Z,5.10
2023-04-05T01:51:32.318Z,4.88
2023-04-05T01:54:00.734Z,5.43
2023-04-05T01:56:27.822Z,4.50
2023-04-05T01:58:55.018Z,5.15
2023-04-05T02:01:22.252Z,5.07
2023-04-05T02:03:49.685Z,5.93
2023-04-05T02:06:17.032Z,6.50
2023-04-05T02:08:44.458Z,6.82
2023-04-05T02:11:11.613Z,5.68
2023-04-05T02:13:39.120Z,6.20
2023-04-05T02:16:06.690Z,6.13
2023-04-05T02:18:33.900Z,7.15
2023-04-05T02:21:04.695Z,6.63
2023-04-05T02:23:33.036Z,6.82
2023-04-05T02:26:00.882Z,7.10
2023-04-05T02:28:28.177Z,6.45
2023-04-05T02:30:56.221Z,7.25
2023-04-05T02:33:23.423Z,7.63
2023-04-05T02:35:52.147Z,7.13
2023-04-05T02:38:19.493Z,6.85
2023-04-05T02:40:48.904Z,6.72
2023-04-05T02:43:16.800Z,7.13
2023-04-05T02:45:46.731Z,6.53
2023-04-05T02:48:15.146Z,6.28
2023-04-05T02:50:42.952Z,6.22
2023-04-05T02:53:11.270Z,6.78
2023-04-05T02:55:42.066Z,6.53
2023-04-05T02:58:09.761Z,7.20
2023-04-05T03:00:42.479Z,6.95
2023-04-05T03:03:10.637Z,6.78
2023-04-05T03:05:43.701Z,7.43
2023-04-05T03:08:18.881Z,7.60
2023-04-05T03:10:57.812Z,6.63
2023-04-05T03:13:26.328Z,8.38
2023-04-05T03:15:55.259Z,7.75
2023-04-05T03:18:26.831Z,8.20
2023-04-05T03:20:57.383Z,7.68
2023-04-05T03:23:28.850Z,7.40
2023-04-05T03:25:59.692Z,6.40
2023-04-05T03:28:32.718Z,6.23
2023-04-05T03:31:03.880Z,5.97
2023-04-05T03:33:31.909Z,5.63
2023-04-05T03:36:00.143Z,6.28
2023-04-05T03:38:32.408Z,6.20
2023-04-05T03:41:03.315Z,5.82
2023-04-05T03:43:31.463Z,5.20
2023-04-05T03:45:58.787Z,5.65
2023-04-05T03:48:28.974Z,5.05
2023-04-05T03:50:56.363Z,5.95
2023-04-05T03:53:23.498Z,5.10
2023-04-05T03:55:55.846Z,6.50
2023-04-05T03:58:38.350Z,6.97
2023-04-05T04:01:07.698Z,6.30
2023-04-05T04:03:37.505Z,6.82
2023-04-05T04:06:07.603Z,5.65
2023-04-05T04:08:34.948Z,5.35
2023-04-05T04:11:02.291Z,5.95
2023-04-05T04:13:33.769Z,5.57
2023-04-05T04:16:04.086Z,4.97
2023-04-05T04:18:40.146Z,4.85
2023-04-05T04:21:21.506Z,5.60
2023-04-05T04:23:58.107Z,6.93
2023-04-05T04:26:46.778Z,6.00
2023-04-05T04:29:16.378Z,5.15
2023-04-05T04:31:57.967Z,5.95
2023-04-05T04:34:26.696Z,5.53
2023-04-05T04:37:07.662Z,5.90
2023-04-05T04:39:39.419Z,6.00
2023-04-05T04:42:12.237Z,6.88
2023-04-05T04:44:42.817Z,6.60
2023-04-05T04:47:14.891Z,5.47
2023-04-05T04:49:44.206Z,5.75
2023-04-05T04:52:11.325Z,5.82
2023-04-05T04:54:42.696Z,6.15
2023-04-05T04:57:09.967Z,6.30
2023-04-05T04:59:37.156Z,5.57
2023-04-05T05:02:08.322Z,6.75
2023-04-05T05:04:35.605Z,5.18
2023-04-05T05:07:02.773Z,5.30
2023-04-05T05:09:34.259Z,5.95
2023-04-05T05:12:01.855Z,5.82
2023-04-05T05:14:28.992Z,5.60
2023-04-05T05:16:59.304Z,5.70
2023-04-05T05:19:29.484Z,5.60
2023-04-05T05:21:57.604Z,6.00
2023-04-05T05:24:24.705Z,5.95
2023-04-05T05:26:51.962Z,5.93
2023-04-05T05:29:20.875Z,6.13
2023-04-05T05:31:49.919Z,5.55
2023-04-05T05:34:17.793Z,5.68
2023-04-05T05:36:51.837Z,5.72
2023-04-05T05:39:19.315Z,6.05
2023-04-05T05:41:46.770Z,5.43
2023-04-05T05:44:14.978Z,5.22
2023-04-05T05:46:42.229Z,7.78
2023-04-05T05:49:09.771Z,5.30
2023-04-05T05:51:36.936Z,5.45
2023-04-05T05:54:04.348Z,6.38
2023-04-05T05:56:31.524Z,5.30
2023-04-05T05:58:59.852Z,6.47
2023-04-05T06:01:28.436Z,5.45
2023-04-05T06:03:56.122Z,5.50
2023-04-05T06:06:23.507Z,5.95
2023-04-05T06:08:51.499Z,5.65
2023-04-05T06:11:21.812Z,5.60
2023-04-05T06:14:10.385Z,6.05
2023-04-05T06:16:37.819Z,5.65
2023-04-05T06:19:05.710Z,6.00
2023-04-05T06:21:33.046Z,5.55
2023-04-05T06:24:00.555Z,5.78
2023-04-05T06:26:30.202Z,6.22
2023-04-05T06:28:57.613Z,5.82
2023-04-05T06:31:27.583Z,5.80
2023-04-05T06:33:54.903Z,5.43
2023-04-05T06:36:22.251Z,6.13
2023-04-05T06:38:50.688Z,5.97
2023-04-05T06:41:17.901Z,5.95
2023-04-05T06:43:45.584Z,6.35
2023-04-05T06:46:13.829Z,6.28
2023-04-05T06:48:42.292Z,6.82
2023-04-05T06:51:09.751Z,5.85
2023-04-05T06:53:37.051Z,6.00
2023-04-05T06:56:05.353Z,7.57
2023-04-05T06:58:32.531Z,5.68
2023-04-05T07:01:02.076Z,6.85
2023-04-05T07:03:29.458Z,6.45
2023-04-05T07:05:59.440Z,7.32
2023-04-05T07:08:28.202Z,7.85
2023-04-05T07:10:55.836Z,7.20
2023-04-05T07:13:25.220Z,7.30
2023-04-05T07:15:53.196Z,7.43
2023-04-05T07:18:20.512Z,7.68
2023-04-05T07:20:49.805Z,8.30
2023-04-05T07:23:18.356Z,7.47
2023-04-05T07:25:46.127Z,6.90
2023-04-05T07:28:13.456Z,7.90
2023-04-05T07:30:41.219Z,7.32
2023-04-05T07:33:09.046Z,7.88
2023-04-05T07:35:37.243Z,7.40
2023-04-05T07:38:04.459Z,7.68
2023-04-05T07:40:31.676Z,7.78
2023-04-05T07:42:58.896Z,8.80
2023-04-05T07:45:26.258Z,8.23
2023-04-05T07:47:53.429Z,7.75
2023-04-05T07:50:20.819Z,7.03
2023-04-05T07:52:47.978Z,8.18
2023-04-05T07:55:15.282Z,7.63
2023-04-05T07:57:42.470Z,8.40
2023-04-05T08:00:12.249Z,8.02
2023-04-05T08:02:40.884Z,8.65
2023-04-05T08:05:09.508Z,7.72
2023-04-05T08:07:36.784Z,7.70
2023-04-05T08:10:04.976Z,7.50
2023-04-05T08:12:32.741Z,7.47
2023-04-05T08:15:00.096Z,7.43
2023-04-05T08:17:28.484Z,6.45
2023-04-05T08:19:56.236Z,6.57
2023-04-05T08:22:23.400Z,7.25
2023-04-05T08:24:50.678Z,7.55
2023-04-05T08:27:18.779Z,7.90
2023-04-05T08:29:46.051Z,7.50
2023-04-05T08:32:13.408Z,7.63
2023-04-05T08:34:40.743Z,7.40
2023-04-05T08:37:07.997Z,7.28
2023-04-05T08:39:36.087Z,6.88
2023-04-05T08:42:12.230Z,7.43
2023-04-05T08:44:41.630Z,7.25
2023-04-05T08:47:15.412Z,7.28
2023-04-05T08:52:10.527Z,7.00
2023-04-05T08:54:37.933Z,6.80
2023-04-05T08:57:07.053Z,6.75
2023-04-05T08:59:39.421Z,7.65
2023-04-05T09:02:16.555Z,7.20
2023-04-05T09:04:45.312Z,7.47
2023-04-05T09:07:14.503Z,8.05
2023-04-05T09:09:46.807Z,6.72
2023-04-05T09:12:15.659Z,7.05
2023-04-05T09:14:43.509Z,7.25
2023-04-05T09:17:11.466Z,7.50
2023-04-05T09:19:39.133Z,7.35
2023-04-05T09:22:08.456Z,8.45
2023-04-05T09:24:42.221Z,6.55
2023-04-05T09:27:12.563Z,7.53
2023-04-05T09:29:42.499Z,7.68
2023-04-05T09:32:11.799Z,7.60
2023-04-05T09:34:40.219Z,6.35
2023-04-05T09:37:14.858Z,6.97
2023-04-05T09:39:42.787Z,7.43
2023-04-05T09:42:13.277Z,6.72
2023-04-05T09:44:46.236Z,6.03
2023-04-05T09:47:17.532Z,6.80
2023-04-05T09:49:45.490Z,6.38
2023-04-05T09:52:16.845Z,6.20
2023-04-05T09:54:44.204Z,6.15
2023-04-05T09:57:12.134Z,6.10
2023-04-05T09:59:40.814Z,6.78
2023-04-05T10:02:10.633Z,5.75
2023-04-05T10:04:41.461Z,6.45
2023-04-05T10:07:13.291Z,5.85
2023-04-05T10:09:41.838Z,5.55
2023-04-05T10:12:11.518Z,5.68
2023-04-05T10:14:39.287Z,5.38
2023-04-05T10:17:11.407Z,5.45
2023-04-05T10:19:55.568Z,5.43
2023-04-05T10:22:32.517Z,6.03
2023-04-05T10:25:06.582Z,6.10
2023-04-05T10:27:42.114Z,5.32
2023-04-05T10:30:10.238Z,5.28
2023-04-05T10:32:59.116Z,5.05
2023-04-05T10:35:35.911Z,5.68
2023-04-05T10:38:17.082Z,5.57
2023-04-05T10:40:48.812Z,5.10
2023-04-05T10:43:23.130Z,5.50
2023-04-05T10:45:53.833Z,5.80
2023-04-05T10:48:25.400Z,5.72
2023-04-05T10:50:53.183Z,5.13
2023-04-05T10:53:22.567Z,5.70
2023-04-05T10:55:51.065Z,5.93
2023-04-05T10:58:19.405Z,5.20
2023-04-05T11:00:49.577Z,5.20
2023-04-05T11:03:20.289Z,6.22
2023-04-05T11:05:47.636Z,5.70
2023-04-05T11:08:16.399Z,6.10
2023-04-05T11:10:53.910Z,5.68
2023-04-05T11:13:21.790Z,6.47
2023-04-05T11:16:09.199Z,5.68
2023-04-05T11:18:45.890Z,6.10
2023-04-05T11:21:22.558Z,5.18
2023-04-05T11:23:53.007Z,5.82
2023-04-05T11:26:20.531Z,6.22
2023-04-05T11:28:47.922Z,6.80
2023-04-05T11:31:18.605Z,5.57
2023-04-05T11:34:08.367Z,4.60
2023-04-05T11:36:44.629Z,5.88
2023-04-05T11:39:27.332Z,5.10
2023-04-05T11:41:59.068Z,5.70
2023-04-05T11:44:26.623Z,5.15
2023-04-05T11:46:54.658Z,5.43
2023-04-05T11:49:24.493Z,5.18
2023-04-05T11:51:53.256Z,5.82
2023-04-05T11:54:23.912Z,5.70
2023-04-05T11:56:52.422Z,6.13
2023-04-05T11:59:19.724Z,5.00
2023-04-05T12:01:46.890Z,5.60
2023-04-05T12:04:14.670Z,5.30
2023-04-05T12:06:41.853Z,5.22
2023-04-05T12:09:09.151Z,5.68
2023-04-05T12:11:37.029Z,5.00
2023-04-05T12:14:04.295Z,5.07
2023-04-05T12:16:31.537Z,6.40
2023-04-05T12:19:00.884Z,5.80
2023-04-05T12:21:28.666Z,5.00
2023-04-05T12:23:56.897Z,5.40
2023-04-05T12:26:24.710Z,4.82
2023-04-05T12:28:54.496Z,4.72
2023-04-05T12:31:24.758Z,5.25
2023-04-05T12:33:52.092Z,4.68
2023-04-05T12:36:19.388Z,4.43
2023-04-05T12:38:47.921Z,5.18
2023-04-05T12:41:16.362Z,4.50
2023-04-05T12:43:43.750Z,4.22
2023-04-05T12:46:12.421Z,9.88
2023-04-05T12:48:42.543Z,7.10
2023-04-05T12:51:12.831Z,6.15
2023-04-05T12:53:47.323Z,4.30
2023-04-05T12:56:16.592Z,4.53
2023-04-05T12:58:43.794Z,4.05
2023-04-05T13:01:11.356Z,4.15
2023-04-05T13:03:38.552Z,5.30
2023-04-05T13:06:06.014Z,6.50
2023-04-05T13:08:33.417Z,6.32
2023-04-05T13:11:01.505Z,4.70
2023-04-05T13:13:28.683Z,5.07
2023-04-05T13:15:56.202Z,5.53
2023-04-05T13:18:23.413Z,4.00
2023-04-05T13:20:50.700Z,4.35
2023-04-05T13:23:17.915Z,4.80
2023-04-05T13:25:45.689Z,4.50
2023-04-05T13:28:12.872Z,4.22
2023-04-05T13:30:40.422Z,4.32
2023-04-05T13:33:07.726Z,4.47
2023-04-05T13:35:35.054Z,4.30
2023-04-05T13:38:04.577Z,4.63
2023-04-05T13:40:32.821Z,4.75
2023-04-05T13:43:00.552Z,4.60
2023-04-05T13:45:28.994Z,3.97
2023-04-05T13:47:56.439Z,4.20
2023-04-05T13:50:24.046Z,4.55
2023-04-05T13:52:52.205Z,4.80
2023-04-05T13:55:19.602Z,4.05
2023-04-05T13:57:46.898Z,3.70
2023-04-05T14:00:14.948Z,3.80
2023-04-05T14:02:42.770Z,3.95
2023-04-05T14:05:10.412Z,3.97
2023-04-05T14:07:38.600Z,3.95
2023-04-05T14:10:06.894Z,3.60
2023-04-05T14:12:34.714Z,3.95
2023-04-05T14:15:02.300Z,3.55
2023-04-05T14:17:29.537Z,3.30
2023-04-05T14:19:56.801Z,3.38
2023-04-05T14:22:24.164Z,3.38
2023-04-05T14:24:51.512Z,3.35
2023-04-05T14:27:22.189Z,3.55
2023-04-05T14:29:51.929Z,3.58
2023-04-05T14:32:19.081Z,3.08
2023-04-05T14:34:46.349Z,3.30
2023-04-05T14:37:13.665Z,3.30
2023-04-05T14:39:41.164Z,3.70
2023-04-05T14:42:08.369Z,3.20
2023-04-05T14:44:36.072Z,3.13
2023-04-05T14:47:03.276Z,2.97
2023-04-05T14:49:30.611Z,2.58
2023-04-05T14:51:57.924Z,2.70
2023-04-05T14:54:25.319Z,2.85
2023-04-05T14:56:52.583Z,3.28
2023-04-05T14:59:19.956Z,2.67
2023-04-05T15:01:47.531Z,2.78
2023-04-05T15:04:15.013Z,2.65
2023-04-05T15:06:42.430Z,2.90
2023-04-05T15:09:09.851Z,2.80
2023-04-05T15:11:39.363Z,2.60
2023-04-05T15:14:11.541Z,2.60
2023-04-05T15:16:45.837Z,2.90
2023-04-05T15:19:13.194Z,2.60
2023-04-05T15:21:41.108Z,2.45
2023-04-05T15:24:08.501Z,2.72
2023-04-05T15:26:36.002Z,2.70
2023-04-05T15:29:03.510Z,3.10
2023-04-05T15:31:34.120Z,2.22
2023-04-05T15:34:01.655Z,2.80
2023-04-05T15:36:29.227Z,3.20
2023-04-05T15:38:57.049Z,2.85
2023-04-05T15:41:24.352Z,2.50
2023-04-05T15:43:51.612Z,2.67
2023-04-05T15:46:18.836Z,3.28
2023-04-05T15:48:47.008Z,2.80
2023-04-05T15:51:14.958Z,2.50
2023-04-05T15:53:42.298Z,2.30
2023-04-05T15:56:09.674Z,2.58
2023-04-05T15:58:37.747Z,2.00
2023-04-05T16:01:05.987Z,2.20
2023-04-05T16:03:33.623Z,2.38
2023-04-05T16:06:00.846Z,2.28
2023-04-05T16:08:28.231Z,2.35
2023-04-05T16:10:57.151Z,2.17
2023-04-05T16:13:24.523Z,2.13
2023-04-05T16:15:51.866Z,2.35
2023-04-05T16:18:21.420Z,2.67
2023-04-05T16:20:48.672Z,2.35
2023-04-05T16:23:16.097Z,2.35
2023-04-05T16:25:43.583Z,2.30
2023-04-05T16:28:11.145Z,2.60
2023-04-05T16:30:38.407Z,2.60
2023-04-05T16:33:06.136Z,2.20
2023-04-05T16:35:33.410Z,2.08
2023-04-05T16:38:00.836Z,2.50
2023-04-05T16:40:28.163Z,2.10
2023-04-05T16:42:55.923Z,2.10
2023-04-05T16:45:23.080Z,2.17
2023-04-05T16:47:50.560Z,1.92
2023-04-05T16:50:17.990Z,2.38
2023-04-05T16:52:46.243Z,2.05
2023-04-05T16:55:13.518Z,2.20
2023-04-05T16:57:40.859Z,2.13
2023-04-05T17:00:09.139Z,2.25
2023-04-05T17:02:36.845Z,2.30
2023-04-05T17:05:04.412Z,2.40
2023-04-05T17:07:31.741Z,2.40
2023-04-05T17:10:00.800Z,2.35
2023-04-05T17:12:28.161Z,2.40
2023-04-05T17:14:55.309Z,2.47
2023-04-05T17:17:22.728Z,2.50
2023-04-05T17:19:50.080Z,2.17
2023-04-05T17:22:17.352Z,2.25
2023-04-05T17:24:46.489Z,2.70
2023-04-05T17:27:13.888Z,2.50
2023-04-05T17:29:41.194Z,2.40
2023-04-05T17:32:08.619Z,2.28
2023-04-05T17:34:36.160Z,2.03
2023-04-05T17:37:03.420Z,2.10
2023-04-05T17:39:30.755Z,1.95
2023-04-05T17:41:58.072Z,2.55
2023-04-05T17:44:25.336Z,2.35
2023-04-05T17:47:05.437Z,2.53
2023-04-05T17:49:36.578Z,2.70
2023-04-05T17:52:04.825Z,2.22
2023-04-05T17:54:37.005Z,2.35
2023-04-05T17:57:06.185Z,2.35
2023-04-05T17:59:33.380Z,2.20
2023-04-05T18:02:00.995Z,2.28
2023-04-05T18:04:28.358Z,2.25
2023-04-05T18:06:56.426Z,2.35
2023-04-05T18:09:23.672Z,2.38
2023-04-05T18:11:51.358Z,2.10
2023-04-05T18:14:18.625Z,2.25
2023-04-05T18:16:45.924Z,2.50
2023-04-05T18:19:13.642Z,2.30
2023-04-05T18:21:41.067Z,3.20
2023-04-05T18:24:08.255Z,3.95
2023-04-05T18:26:36.124Z,3.15
2023-04-05T18:29:05.217Z,3.75
2023-04-05T18:31:32.748Z,3.22
2023-04-05T18:34:00.953Z,2.50
2023-04-05T18:36:28.142Z,2.50
2023-04-05T18:38:57.744Z,2.33
2023-04-05T18:41:25.131Z,2.67
2023-04-05T18:43:54.341Z,2.60
2023-04-05T18:46:22.952Z,2.25
2023-04-05T18:48:54.814Z,2.30
2023-04-05T18:51:24.196Z,2.00
2023-04-05T18:53:51.430Z,2.15
2023-04-05T18:56:18.865Z,2.45
2023-04-05T18:58:46.464Z,2.80
2023-04-05T19:01:16.096Z,2.83
2023-04-05T19:03:44.913Z,3.15
2023-04-05T19:06:12.763Z,3.20
2023-04-05T19:08:40.620Z,3.15
2023-04-05T19:11:08.730Z,3.22
2023-04-05T19:13:36.003Z,3.20
2023-04-05T19:16:03.587Z,3.42
2023-04-05T19:18:31.076Z,2.95
2023-04-05T19:21:00.683Z,2.58
2023-04-05T19:23:29.024Z,2.67
2023-04-05T19:25:57.452Z,3.22
2023-04-05T19:28:26.010Z,3.20
2023-04-05T19:30:54.177Z,2.90
2023-04-05T19:33:22.109Z,2.95
2023-04-05T19:35:49.860Z,2.92
2023-04-05T19:38:17.232Z,2.95
2023-04-05T19:40:44.583Z,2.67
2023-04-05T19:43:12.902Z,2.90
2023-04-05T19:45:40.489Z,2.90
2023-04-05T19:48:29.093Z,2.95
2023-04-05T19:50:57.088Z,2.88
2023-04-05T19:53:36.438Z,3.05
2023-04-05T19:56:14.321Z,3.03
2023-04-05T19:58:42.898Z,3.40
2023-04-05T20:01:10.780Z,2.97
2023-04-05T20:03:41.234Z,3.05
2023-04-05T20:06:12.597Z,2.88
2023-04-05T20:08:42.616Z,3.60
2023-04-05T20:11:14.578Z,3.78
2023-04-05T20:13:47.949Z,3.75
2023-04-05T20:16:16.531Z,4.18
2023-04-05T20:18:46.488Z,3.90
2023-04-05T20:21:14.565Z,4.38
2023-04-05T20:23:43.815Z,4.50
2023-04-05T20:26:14.164Z,4.43
2023-04-05T20:28:46.301Z,4.13
2023-04-05T20:31:16.564Z,3.95
2023-04-05T20:33:53.076Z,4.07
2023-04-05T20:36:23.431Z,3.72
2023-04-05T20:38:51.073Z,3.35
2023-04-05T20:41:20.014Z,4.32
2023-04-05T20:43:47.887Z,3.70
2023-04-05T20:46:16.646Z,3.78
2023-04-05T20:48:45.462Z,3.70
2023-04-05T20:51:14.228Z,3.95
2023-04-05T20:53:41.713Z,3.47
2023-04-05T20:56:10.741Z,3.63
2023-04-05T20:58:39.671Z,3.90
2023-04-05T21:01:07.871Z,3.90
2023-04-05T21:03:37.865Z,3.50
2023-04-05T21:06:06.235Z,3.53
2023-04-05T21:08:33.463Z,3.78
2023-04-05T21:11:01.242Z,3.92
2023-04-05T21:13:28.744Z,5.03
2023-04-05T21:15:56.998Z,4.90
2023-04-05T21:18:25.651Z,4.68
2023-04-05T21:20:53.861Z,4.43
2023-04-05T21:23:23.107Z,4.75
2023-04-05T21:25:50.704Z,4.53
2023-04-05T21:28:17.904Z,3.78
2023-04-05T21:30:45.463Z,5.20
2023-04-05T21:33:13.632Z,4.80
2023-04-05T21:35:41.243Z,4.15
2023-04-05T21:38:08.490Z,4.80
2023-04-05T21:40:36.253Z,4.63
2023-04-05T21:43:03.799Z,4.80
2023-04-05T21:45:31.175Z,5.20
2023-04-05T21:47:58.547Z,5.55
2023-04-05T21:50:25.825Z,6.45
2023-04-05T21:52:53.166Z,6.38
2023-04-05T21:55:20.472Z,6.60
2023-04-05T21:57:47.779Z,6.60
2023-04-05T22:00:15.678Z,6.60
2023-04-05T22:02:43.041Z,5.75
2023-04-05T22:05:10.803Z,6.30
2023-04-05T22:07:39.079Z,6.28
2023-04-05T22:10:08.521Z,5.90
2023-04-05T22:12:35.946Z,5.72
2023-04-05T22:15:03.253Z,5.50
2023-04-05T22:17:30.652Z,5.03
2023-04-05T22:19:57.834Z,5.20
2023-04-05T22:22:25.117Z,5.32
2023-04-05T22:24:52.372Z,5.32
2023-04-05T22:27:19.752Z,6.07
2023-04-05T22:29:48.521Z,5.32
2023-04-05T22:32:16.026Z,4.90
2023-04-05T22:34:43.489Z,5.15
2023-04-05T22:37:11.173Z,5.03
2023-04-05T22:39:38.388Z,6.05
2023-04-05T22:42:06.059Z,5.07
2023-04-05T22:44:33.229Z,5.22
2023-04-05T22:47:00.530Z,4.72
2023-04-05T22:49:27.767Z,5.30
2023-04-05T22:51:55.074Z,5.18
2023-04-05T22:54:22.376Z,6.07
2023-04-05T22:56:49.616Z,5.65
2023-04-05T22:59:16.972Z,5.53
2023-04-05T23:01:44.249Z,5.40
2023-04-05T23:04:11.495Z,5.30
2023-04-05T23:06:38.840Z,5.68
2023-04-05T23:09:08.657Z,5.10
2023-04-05T23:11:36.069Z,4.82
2023-04-05T23:14:03.262Z,5.25
2023-04-05T23:16:30.778Z,5.45
2023-04-05T23:18:58.162Z,5.55
2023-04-05T23:21:25.477Z,5.00
2023-04-05T23:23:52.692Z,5.50
2023-04-05T23:26:19.935Z,4.80
2023-04-05T23:28:47.204Z,5.20
2023-04-05T23:31:14.555Z,5.07
2023-04-05T23:33:41.699Z,5.82
2023-04-05T23:36:09.427Z,5.75
2023-04-05T23:38:36.915Z,7.15
2023-04-05T23:41:04.407Z,7.50
2023-04-05T23:43:32.518Z,7.47
2023-04-05T23:45:59.821Z,6.78
2023-04-05T23:48:27.396Z,6.95
2023-04-05T23:50:54.644Z,6.38
2023-04-05T23:53:21.817Z,6.38
2023-04-05T23:55:49.541Z,5.88
2023-04-05T23:58:16.697Z,6.15
